METAR Data
IDs: Format: Raw Decoded Include TAF

Data at: 0446 UTC 20 Oct 2018

PANA 200156Z AUTO 03007KT 10SM CLR 07/03 A2935 RMK AO2 SLP939 T00720028
PANA 200056Z AUTO 36005KT 10SM CLR 07/03 A2934 RMK AO2 SLP935 T00670028
PANA 192356Z AUTO 36007KT 10SM CLR 07/03 A2935 RMK AO2 SLP936 T00670033 10067 20006 58014
PANA 192256Z AUTO 35005KT 10SM CLR 07/03 A2936 RMK AO2 SLP942 T00670028
PANA 192156Z AUTO 04007KT 10SM CLR 06/03 A2938 RMK AO2 SLP948 T00610028
PANA 192056Z AUTO 03005KT 10SM CLR 06/03 A2939 RMK AO2 SLP951 T00560028 58004
PANA 191956Z AUTO 03003KT 10SM CLR 04/02 A2940 RMK AO2 SLP953 T00390022
PANA 191856Z AUTO 02004KT 10SM CLR 02/02 A2939 RMK AO2 SLP953 T00220017 FZRANO
PANA 191756Z AUTO 02004KT 10SM CLR 01/00 A2940 RMK AO2 SLP955 T00060000 10039 20006 56017 FZRANO
PANA 191656Z AUTO 02003KT 10SM CLR 01/01 A2941 RMK AO2 SLP959 T00110006 FZRANO
PANA 191556Z AUTO 05005KT 10SM BKN070 02/02 A2943 RMK AO2 SLP965 T00220017 FZRANO
PANA 191456Z AUTO 07005KT 10SM BKN065 OVC085 02/01 A2945 RMK AO2 SLP972 T00170011 56019 FZRANO
PANA 191356Z AUTO 07005KT 10SM FEW070 SCT090 03/02 A2947 RMK AO2 SLP978 T00330022
PANA 191256Z AUTO 06006KT 10SM SCT070 OVC090 04/02 A2949 RMK AO2 SLP985 T00390022
PANA 191156Z AUTO 05005KT 10SM SCT085 03/02 A2951 RMK AO2 SLP991 T00280017 10067 20028 56013
PANA 191056Z AUTO 05004KT 10SM CLR 03/02 A2952 RMK AO2 SLP995 T00330022
PANA 190956Z AUTO 06004KT 10SM CLR 04/03 A2953 RMK AO2 SLP999 T00440033
PANA 190556Z AUTO 07006KT 10SM BKN080 06/03 A2957 RMK AO2 SLP011 T00610033 10100 20061 57004
PANA 190456Z AUTO 07006KT 10SM FEW060 SCT085 07/04 A2957 RMK AO2 SLP013 T00670039
PANA 190356Z AUTO 08007KT 10SM OVC055 08/05 A2957 RMK AO2 SLP013 T00780050
PANA 190256Z AUTO 08006KT 10SM OVC060 09/05 A2958 RMK AO2 SLP015 T00940050 56007
PANA 190156Z AUTO 07008KT 10SM OVC055 09/05 A2958 RMK AO2 SLP016 T00940050
PANA 190056Z AUTO 08007KT 10SM OVC055 10/04 A2959 RMK AO2 SLP018 T01000044
PANA 182356Z AUTO 07006KT 10SM BKN050 OVC060 09/05 A2960 RMK AO2 SLP023 T00940050 10094 20044 58005
PANA 182256Z AUTO 07006KT 10SM FEW050 BKN080 09/06 A2961 RMK AO2 SLP026 T00940056
PANA 182156Z AUTO 08005KT 10SM FEW045 BKN055 OVC070 07/06 A2962 RMK AO2 SLP028 T00720056
PANA 182056Z AUTO 07006KT 10SM BKN040 OVC050 07/05 A2961 RMK AO2 SLP027 T00670050 51007
PANA 181956Z AUTO 07004KT 10SM BKN043 OVC060 06/05 A2961 RMK AO2 SLP027 T00560050
PANA 181856Z AUTO 06004KT 10SM BKN045 OVC060 05/04 A2960 RMK AO2 SLP024 T00500044
PANA 181756Z AUTO 05004KT 10SM OVC055 04/04 A2959 RMK AO2 SLP020 60000 T00440044 10061 20033 51009
PANA 181656Z AUTO 04004KT 8SM BKN046 OVC060 03/03 A2959 RMK AO2 SLP018 T00330033
PANA 181649Z AUTO 04004KT 2SM BR BKN046 03/03 A2958 RMK AO2